Terminal Aerodrome Forecast
Issued by NWS Wilmington, OH

Home | Current Version | Previous Version | Text Only | Print | Product List | Glossary On
Versions: 1 2 3 4 5 6 7 8 9 10 11 12 13 14 15 16 17 18 19 20 21
000
FTUS41 KILN 021100
TAFDAY
TAF
KDAY 021120Z 0212/0312 25008KT P6SM -SHRA VCTS OVC040CB
      TEMPO 0212/0213 3SM -TSRA OVC025CB
     FM021400 22008KT P6SM VCSH BKN040
     FM021800 26010KT P6SM SCT040
     FM030000 22005KT P6SM SCT250
     FM030900 22004KT 4SM BR SCT025=

USA.gov is the U.S. government's official web portal to all federal, state and local government web resources and services.